sensor_id;sensor_type;location;lat;lon;timestamp;temperature;humidity
16305;DHT22;8261;47.678;-122.174;2022-08-16T00:05:14;31.50;95.10
16305;DHT22;8261;47.678;-122.174;2022-08-16T00:07:47;31.30;95.10
16305;DHT22;8261;47.678;-122.174;2022-08-16T00:10:30;31.10;95.00
16305;DHT22;8261;47.678;-122.174;2022-08-16T00:13:05;30.70;95.60
16305;DHT22;8261;47.678;-122.174;2022-08-16T00:15:40;30.70;95.70
16305;DHT22;8261;47.678;-122.174;2022-08-16T00:18:20;30.30;95.50
16305;DHT22;8261;47.678;-122.174;2022-08-16T00:20:58;30.50;96.00
16305;DHT22;8261;47.678;-122.174;2022-08-16T00:23:31;30.60;96.30
16305;DHT22;8261;47.678;-122.174;2022-08-16T00:26:15;30.30;96.20
16305;DHT22;8261;47.678;-122.174;2022-08-16T00:29:06;30.40;95.80
16305;DHT22;8261;47.678;-122.174;2022-08-16T00:31:38;30.60;96.20
16305;DHT22;8261;47.678;-122.174;2022-08-16T00:34:29;30.60;96.40
16305;DHT22;8261;47.678;-122.174;2022-08-16T00:37:19;30.70;96.20
16305;DHT22;8261;47.678;-122.174;2022-08-16T00:40:12;30.30;96.10
16305;DHT22;8261;47.678;-122.174;2022-08-16T00:43:07;30.30;96.60
16305;DHT22;8261;47.678;-122.174;2022-08-16T00:45:53;30.40;97.50
16305;DHT22;8261;47.678;-122.174;2022-08-16T00:48:29;30.50;96.30
16305;DHT22;8261;47.678;-122.174;2022-08-16T00:51:12;30.40;96.20
16305;DHT22;8261;47.678;-122.174;2022-08-16T00:53:48;30.50;96.00
16305;DHT22;8261;47.678;-122.174;2022-08-16T00:56:24;30.40;96.50
16305;DHT22;8261;47.678;-122.174;2022-08-16T00:59:21;30.40;96.80
16305;DHT22;8261;47.678;-122.174;2022-08-16T01:01:54;30.60;97.40
16305;DHT22;8261;47.678;-122.174;2022-08-16T01:04:26;30.70;97.10
16305;DHT22;8261;47.678;-122.174;2022-08-16T01:07:01;30.80;97.20
16305;DHT22;8261;47.678;-122.174;2022-08-16T01:09:37;30.60;97.20
16305;DHT22;8261;47.678;-122.174;2022-08-16T01:12:10;30.70;96.80
16305;DHT22;8261;47.678;-122.174;2022-08-16T01:14:58;30.90;96.90
16305;DHT22;8261;47.678;-122.174;2022-08-16T01:17:32;30.80;96.50
16305;DHT22;8261;47.678;-122.174;2022-08-16T01:20:11;30.80;96.10
16305;DHT22;8261;47.678;-122.174;2022-08-16T01:23:00;31.10;96.20
16305;DHT22;8261;47.678;-122.174;2022-08-16T01:25:41;31.50;95.50
16305;DHT22;8261;47.678;-122.174;2022-08-16T01:28:34;31.80;95.00
16305;DHT22;8261;47.678;-122.174;2022-08-16T01:31:13;31.90;94.70
16305;DHT22;8261;47.678;-122.174;2022-08-16T01:33:57;31.60;95.60
16305;DHT22;8261;47.678;-122.174;2022-08-16T01:36:34;31.20;95.30
16305;DHT22;8261;47.678;-122.174;2022-08-16T01:39:09;31.20;95.40
16305;DHT22;8261;47.678;-122.174;2022-08-16T01:41:43;31.50;93.60
16305;DHT22;8261;47.678;-122.174;2022-08-16T01:44:15;31.70;93.10
16305;DHT22;8261;47.678;-122.174;2022-08-16T01:46:48;31.70;92.70
16305;DHT22;8261;47.678;-122.174;2022-08-16T01:49:30;31.50;93.20
16305;DHT22;8261;47.678;-122.174;2022-08-16T01:52:22;31.00;93.20
16305;DHT22;8261;47.678;-122.174;2022-08-16T01:55:16;30.20;93.20
16305;DHT22;8261;47.678;-122.174;2022-08-16T02:18:07;27.30;96.10
16305;DHT22;8261;47.678;-122.174;2022-08-16T02:20:51;27.20;97.20
16305;DHT22;8261;47.678;-122.174;2022-08-16T02:23:26;27.00;97.50
16305;DHT22;8261;47.678;-122.174;2022-08-16T02:26:23;26.80;98.60
16305;DHT22;8261;47.678;-122.174;2022-08-16T02:29:20;26.70;98.20
16305;DHT22;8261;47.678;-122.174;2022-08-16T02:32:05;26.40;99.20
16305;DHT22;8261;47.678;-122.174;2022-08-16T02:38:36;26.30;99.90
16305;DHT22;8261;47.678;-122.174;2022-08-16T02:41:12;26.10;99.90
16305;DHT22;8261;47.678;-122.174;2022-08-16T02:43:48;26.00;99.90
16305;DHT22;8261;47.678;-122.174;2022-08-16T02:48:59;25.90;99.90
16305;DHT22;8261;47.678;-122.174;2022-08-16T02:51:34;25.80;99.90
16305;DHT22;8261;47.678;-122.174;2022-08-16T02:54:20;25.70;99.90
16305;DHT22;8261;47.678;-122.174;2022-08-16T02:57:03;25.60;99.90
16305;DHT22;8261;47.678;-122.174;2022-08-16T02:59:49;25.50;99.90
16305;DHT22;8261;47.678;-122.174;2022-08-16T03:02:22;25.40;99.90
16305;DHT22;8261;47.678;-122.174;2022-08-16T03:05:09;25.30;99.90
16305;DHT22;8261;47.678;-122.174;2022-08-16T03:07:50;25.20;99.90
16305;DHT22;8261;47.678;-122.174;2022-08-16T03:10:27;24.90;99.90
16305;DHT22;8261;47.678;-122.174;2022-08-16T03:13:06;24.80;99.90
16305;DHT22;8261;47.678;-122.174;2022-08-16T03:15:39;24.60;99.90
16305;DHT22;8261;47.678;-122.174;2022-08-16T03:18:25;24.50;99.90
16305;DHT22;8261;47.678;-122.174;2022-08-16T03:21:08;24.30;99.90
16305;DHT22;8261;47.678;-122.174;2022-08-16T03:23:45;24.20;99.90
16305;DHT22;8261;47.678;-122.174;2022-08-16T03:26:21;24.10;99.90
16305;DHT22;8261;47.678;-122.174;2022-08-16T03:29:01;24.00;99.90
16305;DHT22;8261;47.678;-122.174;2022-08-16T03:31:37;23.90;99.90
16305;DHT22;8261;47.678;-122.174;2022-08-16T03:34:19;23.90;99.90
16305;DHT22;8261;47.678;-122.174;2022-08-16T03:37:07;23.70;99.90
16305;DHT22;8261;47.678;-122.174;2022-08-16T03:39:55;23.60;99.90
16305;DHT22;8261;47.678;-122.174;2022-08-16T03:42:49;23.60;99.90
16305;DHT22;8261;47.678;-122.174;2022-08-16T03:45:49;23.50;99.90
16305;DHT22;8261;47.678;-122.174;2022-08-16T03:48:23;23.40;99.90
16305;DHT22;8261;47.678;-122.174;2022-08-16T03:51:09;23.30;99.90
16305;DHT22;8261;47.678;-122.174;2022-08-16T03:54:07;23.20;99.90
16305;DHT22;8261;47.678;-122.174;2022-08-16T03:56:47;23.10;99.90
16305;DHT22;8261;47.678;-122.174;2022-08-16T03:59:41;22.90;99.90
16305;DHT22;8261;47.678;-122.174;2022-08-16T04:02:17;22.80;99.90
16305;DHT22;8261;47.678;-122.174;2022-08-16T04:04:59;22.70;99.90
16305;DHT22;8261;47.678;-122.174;2022-08-16T04:07:33;22.50;99.90
16305;DHT22;8261;47.678;-122.174;2022-08-16T04:10:18;22.40;99.90
16305;DHT22;8261;47.678;-122.174;2022-08-16T04:13:05;22.30;99.90
16305;DHT22;8261;47.678;-122.174;2022-08-16T04:15:54;22.20;99.90
16305;DHT22;8261;47.678;-122.174;2022-08-16T04:18:33;22.10;99.90
16305;DHT22;8261;47.678;-122.174;2022-08-16T04:21:18;22.00;99.90
16305;DHT22;8261;47.678;-122.174;2022-08-16T04:24:09;21.90;99.90
16305;DHT22;8261;47.678;-122.174;2022-08-16T04:26:55;21.90;99.90
16305;DHT22;8261;47.678;-122.174;2022-08-16T04:29:26;21.80;99.90
16305;DHT22;8261;47.678;-122.174;2022-08-16T04:32:15;21.70;99.90
16305;DHT22;8261;47.678;-122.174;2022-08-16T04:34:47;21.60;99.90
16305;DHT22;8261;47.678;-122.174;2022-08-16T04:37:18;21.50;99.90
16305;DHT22;8261;47.678;-122.174;2022-08-16T04:39:52;21.50;99.90
16305;DHT22;8261;47.678;-122.174;2022-08-16T04:42:24;21.40;99.90
16305;DHT22;8261;47.678;-122.174;2022-08-16T04:44:56;21.30;99.90
16305;DHT22;8261;47.678;-122.174;2022-08-16T04:47:31;21.20;99.90
16305;DHT22;8261;47.678;-122.174;2022-08-16T04:50:04;21.20;99.90
16305;DHT22;8261;47.678;-122.174;2022-08-16T04:52:35;21.10;99.90
16305;DHT22;8261;47.678;-122.174;2022-08-16T04:55:14;21.10;99.90
16305;DHT22;8261;47.678;-122.174;2022-08-16T04:57:48;21.00;99.90
16305;DHT22;8261;47.678;-122.174;2022-08-16T05:00:23;21.00;99.90
16305;DHT22;8261;47.678;-122.174;2022-08-16T05:03:06;20.90;99.90
16305;DHT22;8261;47.678;-122.174;2022-08-16T05:05:40;20.90;99.90
16305;DHT22;8261;47.678;-122.174;2022-08-16T05:08:28;20.90;99.90
16305;DHT22;8261;47.678;-122.174;2022-08-16T05:11:04;20.70;99.90
16305;DHT22;8261;47.678;-122.174;2022-08-16T05:13:38;20.70;99.90
16305;DHT22;8261;47.678;-122.174;2022-08-16T05:16:12;20.70;99.90
16305;DHT22;8261;47.678;-122.174;2022-08-16T05:18:51;20.60;99.90
16305;DHT22;8261;47.678;-122.174;2022-08-16T05:21:25;20.60;99.90
16305;DHT22;8261;47.678;-122.174;2022-08-16T05:24:22;20.50;99.90
16305;DHT22;8261;47.678;-122.174;2022-08-16T05:26:54;20.50;99.90
16305;DHT22;8261;47.678;-122.174;2022-08-16T05:29:25;20.40;99.90
16305;DHT22;8261;47.678;-122.174;2022-08-16T05:32:16;20.30;99.90
16305;DHT22;8261;47.678;-122.174;2022-08-16T05:35:05;20.30;99.90
16305;DHT22;8261;47.678;-122.174;2022-08-16T05:37:38;20.20;99.90
16305;DHT22;8261;47.678;-122.174;2022-08-16T05:40:12;20.20;99.90
16305;DHT22;8261;47.678;-122.174;2022-08-16T05:42:45;20.10;99.90
16305;DHT22;8261;47.678;-122.174;2022-08-16T05:45:17;20.10;99.90
16305;DHT22;8261;47.678;-122.174;2022-08-16T05:47:50;20.00;99.90
16305;DHT22;8261;47.678;-122.174;2022-08-16T05:50:29;20.00;99.90
16305;DHT22;8261;47.678;-122.174;2022-08-16T05:53:01;19.90;99.90
16305;DHT22;8261;47.678;-122.174;2022-08-16T05:55:32;19.90;99.90
16305;DHT22;8261;47.678;-122.174;2022-08-16T05:58:07;19.80;99.90
16305;DHT22;8261;47.678;-122.174;2022-08-16T06:00:59;19.70;99.90
16305;DHT22;8261;47.678;-122.174;2022-08-16T06:03:33;19.70;99.90
16305;DHT22;8261;47.678;-122.174;2022-08-16T06:06:10;19.70;99.90
16305;DHT22;8261;47.678;-122.174;2022-08-16T06:09:03;19.60;99.90
16305;DHT22;8261;47.678;-122.174;2022-08-16T06:11:35;19.50;99.90
16305;DHT22;8261;47.678;-122.174;2022-08-16T06:14:10;19.50;99.90
16305;DHT22;8261;47.678;-122.174;2022-08-16T06:16:41;19.40;99.90
16305;DHT22;8261;47.678;-122.174;2022-08-16T06:19:17;19.30;99.90
16305;DHT22;8261;47.678;-122.174;2022-08-16T06:21:53;19.30;99.90
16305;DHT22;8261;47.678;-122.174;2022-08-16T06:24:25;19.20;99.90
16305;DHT22;8261;47.678;-122.174;2022-08-16T06:27:17;19.20;99.90
16305;DHT22;8261;47.678;-122.174;2022-08-16T06:29:50;19.10;99.90
16305;DHT22;8261;47.678;-122.174;2022-08-16T06:32:22;19.00;99.90
16305;DHT22;8261;47.678;-122.174;2022-08-16T06:34:55;19.00;99.90
16305;DHT22;8261;47.678;-122.174;2022-08-16T06:37:31;18.90;99.90
16305;DHT22;8261;47.678;-122.174;2022-08-16T06:40:06;18.90;99.90
16305;DHT22;8261;47.678;-122.174;2022-08-16T06:42:39;18.90;99.90
16305;DHT22;8261;47.678;-122.174;2022-08-16T06:45:15;18.80;99.90
16305;DHT22;8261;47.678;-122.174;2022-08-16T06:47:46;18.80;99.90
16305;DHT22;8261;47.678;-122.174;2022-08-16T06:50:24;18.80;99.90
16305;DHT22;8261;47.678;-122.174;2022-08-16T06:53:01;18.70;99.90
16305;DHT22;8261;47.678;-122.174;2022-08-16T06:55:36;18.70;99.90
16305;DHT22;8261;47.678;-122.174;2022-08-16T06:58:08;18.60;99.90
16305;DHT22;8261;47.678;-122.174;2022-08-16T07:00:49;18.60;99.90
16305;DHT22;8261;47.678;-122.174;2022-08-16T07:03:26;18.60;99.90
16305;DHT22;8261;47.678;-122.174;2022-08-16T07:05:59;18.60;99.90
16305;DHT22;8261;47.678;-122.174;2022-08-16T07:08:32;18.60;99.90
16305;DHT22;8261;47.678;-122.174;2022-08-16T07:11:05;18.50;99.90
16305;DHT22;8261;47.678;-122.174;2022-08-16T07:13:37;18.50;99.90
16305;DHT22;8261;47.678;-122.174;2022-08-16T07:16:29;18.50;99.90
16305;DHT22;8261;47.678;-122.174;2022-08-16T07:19:00;18.40;99.90
16305;DHT22;8261;47.678;-122.174;2022-08-16T07:21:35;18.40;99.90
16305;DHT22;8261;47.678;-122.174;2022-08-16T07:24:23;18.40;99.90
16305;DHT22;8261;47.678;-122.174;2022-08-16T07:26:58;18.30;99.90
16305;DHT22;8261;47.678;-122.174;2022-08-16T07:29:30;18.30;99.90
16305;DHT22;8261;47.678;-122.174;2022-08-16T07:32:02;18.30;99.90
16305;DHT22;8261;47.678;-122.174;2022-08-16T07:34:34;18.20;99.90
16305;DHT22;8261;47.678;-122.174;2022-08-16T07:37:16;18.10;99.90
16305;DHT22;8261;47.678;-122.174;2022-08-16T07:39:52;18.10;99.90
16305;DHT22;8261;47.678;-122.174;2022-08-16T07:42:24;18.00;99.90
16305;DHT22;8261;47.678;-122.174;2022-08-16T07:45:02;18.00;99.90
16305;DHT22;8261;47.678;-122.174;2022-08-16T07:47:37;17.90;99.90
16305;DHT22;8261;47.678;-122.174;2022-08-16T07:50:09;17.90;99.90
16305;DHT22;8261;47.678;-122.174;2022-08-16T07:53:02;17.90;99.90
16305;DHT22;8261;47.678;-122.174;2022-08-16T07:55:37;17.90;99.90
16305;DHT22;8261;47.678;-122.174;2022-08-16T07:58:14;17.80;99.90
16305;DHT22;8261;47.678;-122.174;2022-08-16T08:01:03;17.80;99.90
16305;DHT22;8261;47.678;-122.174;2022-08-16T08:03:38;17.80;99.90
16305;DHT22;8261;47.678;-122.174;2022-08-16T08:06:16;17.80;99.90
16305;DHT22;8261;47.678;-122.174;2022-08-16T08:08:51;17.80;99.90
16305;DHT22;8261;47.678;-122.174;2022-08-16T08:11:28;17.80;99.90
16305;DHT22;8261;47.678;-122.174;2022-08-16T08:14:01;17.90;99.90
16305;DHT22;8261;47.678;-122.174;2022-08-16T08:16:33;17.90;99.90
16305;DHT22;8261;47.678;-122.174;2022-08-16T08:19:12;17.90;99.90
16305;DHT22;8261;47.678;-122.174;2022-08-16T08:21:43;17.90;99.90
16305;DHT22;8261;47.678;-122.174;2022-08-16T08:24:27;17.90;99.90
16305;DHT22;8261;47.678;-122.174;2022-08-16T08:27:07;17.90;99.90
16305;DHT22;8261;47.678;-122.174;2022-08-16T08:29:39;17.80;99.90
16305;DHT22;8261;47.678;-122.174;2022-08-16T08:32:31;17.80;99.90
16305;DHT22;8261;47.678;-122.174;2022-08-16T08:35:24;17.80;99.90
16305;DHT22;8261;47.678;-122.174;2022-08-16T08:37:55;17.70;99.90
16305;DHT22;8261;47.678;-122.174;2022-08-16T08:40:28;17.60;99.90
16305;DHT22;8261;47.678;-122.174;2022-08-16T08:43:02;17.60;99.90
16305;DHT22;8261;47.678;-122.174;2022-08-16T08:45:45;17.60;99.90
16305;DHT22;8261;47.678;-122.174;2022-08-16T08:48:20;17.70;99.90
16305;DHT22;8261;47.678;-122.174;2022-08-16T08:51:01;17.60;99.90
16305;DHT22;8261;47.678;-122.174;2022-08-16T08:53:36;17.50;99.90
16305;DHT22;8261;47.678;-122.174;2022-08-16T08:56:08;17.50;99.90
16305;DHT22;8261;47.678;-122.174;2022-08-16T08:58:53;17.50;99.90
16305;DHT22;8261;47.678;-122.174;2022-08-16T09:01:34;17.40;99.90
16305;DHT22;8261;47.678;-122.174;2022-08-16T09:04:12;17.40;99.90
16305;DHT22;8261;47.678;-122.174;2022-08-16T09:06:45;17.40;99.90
16305;DHT22;8261;47.678;-122.174;2022-08-16T09:09:17;17.40;99.90
16305;DHT22;8261;47.678;-122.174;2022-08-16T09:11:49;17.40;99.90
16305;DHT22;8261;47.678;-122.174;2022-08-16T09:14:35;17.40;99.90
16305;DHT22;8261;47.678;-122.174;2022-08-16T09:17:17;17.50;99.90
16305;DHT22;8261;47.678;-122.174;2022-08-16T09:20:10;17.40;99.90
16305;DHT22;8261;47.678;-122.174;2022-08-16T09:22:43;17.40;99.90
16305;DHT22;8261;47.678;-122.174;2022-08-16T09:25:19;17.40;99.90
16305;DHT22;8261;47.678;-122.174;2022-08-16T09:28:00;17.30;99.90
16305;DHT22;8261;47.678;-122.174;2022-08-16T09:30:38;17.30;99.90
16305;DHT22;8261;47.678;-122.174;2022-08-16T09:33:12;17.20;99.90
16305;DHT22;8261;47.678;-122.174;2022-08-16T09:35:48;17.30;99.90
16305;DHT22;8261;47.678;-122.174;2022-08-16T09:38:21;17.20;99.90
16305;DHT22;8261;47.678;-122.174;2022-08-16T09:41:00;17.10;99.90
16305;DHT22;8261;47.678;-122.174;2022-08-16T09:43:32;17.10;99.90
16305;DHT22;8261;47.678;-122.174;2022-08-16T09:46:27;17.10;99.90
16305;DHT22;8261;47.678;-122.174;2022-08-16T09:49:15;17.00;99.90
16305;DHT22;8261;47.678;-122.174;2022-08-16T09:51:47;16.90;99.90
16305;DHT22;8261;47.678;-122.174;2022-08-16T09:54:25;16.90;99.90
16305;DHT22;8261;47.678;-122.174;2022-08-16T09:56:59;16.80;99.90
16305;DHT22;8261;47.678;-122.174;2022-08-16T09:59:31;16.70;99.90
16305;DHT22;8261;47.678;-122.174;2022-08-16T10:02:10;16.60;99.90
16305;DHT22;8261;47.678;-122.174;2022-08-16T10:04:55;16.60;99.90
16305;DHT22;8261;47.678;-122.174;2022-08-16T10:07:29;16.60;99.90
16305;DHT22;8261;47.678;-122.174;2022-08-16T10:10:22;16.60;99.90
16305;DHT22;8261;47.678;-122.174;2022-08-16T10:12:58;16.60;99.90
16305;DHT22;8261;47.678;-122.174;2022-08-16T10:15:44;16.60;99.90
16305;DHT22;8261;47.678;-122.174;2022-08-16T10:18:25;16.60;99.90
16305;DHT22;8261;47.678;-122.174;2022-08-16T10:21:18;16.60;99.90
16305;DHT22;8261;47.678;-122.174;2022-08-16T10:23:50;16.60;99.90
16305;DHT22;8261;47.678;-122.174;2022-08-16T10:26:22;16.50;99.90
16305;DHT22;8261;47.678;-122.174;2022-08-16T10:29:14;16.50;99.90
16305;DHT22;8261;47.678;-122.174;2022-08-16T10:31:47;16.50;99.90
16305;DHT22;8261;47.678;-122.174;2022-08-16T10:34:23;16.50;99.90
16305;DHT22;8261;47.678;-122.174;2022-08-16T10:36:59;16.40;99.90
16305;DHT22;8261;47.678;-122.174;2022-08-16T10:39:32;16.40;99.90
16305;DHT22;8261;47.678;-122.174;2022-08-16T10:42:09;16.30;99.90
16305;DHT22;8261;47.678;-122.174;2022-08-16T10:44:41;16.30;99.90
16305;DHT22;8261;47.678;-122.174;2022-08-16T10:47:20;16.30;99.90
16305;DHT22;8261;47.678;-122.174;2022-08-16T10:49:54;16.40;99.90
16305;DHT22;8261;47.678;-122.174;2022-08-16T10:52:27;16.40;99.90
16305;DHT22;8261;47.678;-122.174;2022-08-16T10:55:00;16.40;99.90
16305;DHT22;8261;47.678;-122.174;2022-08-16T10:57:54;16.40;99.90
16305;DHT22;8261;47.678;-122.174;2022-08-16T11:00:39;16.40;99.90
16305;DHT22;8261;47.678;-122.174;2022-08-16T11:03:13;16.30;99.90
16305;DHT22;8261;47.678;-122.174;2022-08-16T11:06:08;16.30;99.90
16305;DHT22;8261;47.678;-122.174;2022-08-16T11:08:40;16.30;99.90
16305;DHT22;8261;47.678;-122.174;2022-08-16T11:11:13;16.30;99.90
16305;DHT22;8261;47.678;-122.174;2022-08-16T11:13:47;16.30;99.90
16305;DHT22;8261;47.678;-122.174;2022-08-16T11:16:38;16.20;99.90
16305;DHT22;8261;47.678;-122.174;2022-08-16T11:19:29;16.20;99.90
16305;DHT22;8261;47.678;-122.174;2022-08-16T11:22:23;16.20;99.90
16305;DHT22;8261;47.678;-122.174;2022-08-16T11:25:16;16.20;99.90
16305;DHT22;8261;47.678;-122.174;2022-08-16T11:28:08;16.20;99.90
16305;DHT22;8261;47.678;-122.174;2022-08-16T11:31:03;16.10;99.90
16305;DHT22;8261;47.678;-122.174;2022-08-16T11:33:34;16.10;99.90
16305;DHT22;8261;47.678;-122.174;2022-08-16T11:36:22;16.10;99.90
16305;DHT22;8261;47.678;-122.174;2022-08-16T11:38:57;16.10;99.90
16305;DHT22;8261;47.678;-122.174;2022-08-16T11:41:29;16.10;99.90
16305;DHT22;8261;47.678;-122.174;2022-08-16T11:44:01;16.10;99.90
16305;DHT22;8261;47.678;-122.174;2022-08-16T11:46:33;16.00;99.90
16305;DHT22;8261;47.678;-122.174;2022-08-16T11:49:13;15.90;99.90
16305;DHT22;8261;47.678;-122.174;2022-08-16T11:51:44;15.90;99.90
16305;DHT22;8261;47.678;-122.174;2022-08-16T11:54:20;15.90;99.90
16305;DHT22;8261;47.678;-122.174;2022-08-16T11:57:03;15.90;99.90
16305;DHT22;8261;47.678;-122.174;2022-08-16T11:59:36;15.90;99.90
16305;DHT22;8261;47.678;-122.174;2022-08-16T12:02:08;15.80;99.90
16305;DHT22;8261;47.678;-122.174;2022-08-16T12:04:59;15.80;99.90
16305;DHT22;8261;47.678;-122.174;2022-08-16T12:07:32;15.80;99.90
16305;DHT22;8261;47.678;-122.174;2022-08-16T12:10:08;15.80;99.90
16305;DHT22;8261;47.678;-122.174;2022-08-16T12:12:41;15.70;99.90
16305;DHT22;8261;47.678;-122.174;2022-08-16T12:15:14;15.70;99.90
16305;DHT22;8261;47.678;-122.174;2022-08-16T12:17:45;15.70;99.90
16305;DHT22;8261;47.678;-122.174;2022-08-16T12:20:21;15.70;99.90
16305;DHT22;8261;47.678;-122.174;2022-08-16T12:22:56;15.70;99.90
16305;DHT22;8261;47.678;-122.174;2022-08-16T12:25:31;15.60;99.90
16305;DHT22;8261;47.678;-122.174;2022-08-16T12:28:05;15.60;99.90
16305;DHT22;8261;47.678;-122.174;2022-08-16T12:30:39;15.60;99.90
16305;DHT22;8261;47.678;-122.174;2022-08-16T12:33:12;15.60;99.90
16305;DHT22;8261;47.678;-122.174;2022-08-16T12:35:52;15.60;99.90
16305;DHT22;8261;47.678;-122.174;2022-08-16T12:38:23;15.50;99.90
16305;DHT22;8261;47.678;-122.174;2022-08-16T12:41:16;15.50;99.90
16305;DHT22;8261;47.678;-122.174;2022-08-16T12:43:52;15.50;99.90
16305;DHT22;8261;47.678;-122.174;2022-08-16T12:46:28;15.50;99.90
16305;DHT22;8261;47.678;-122.174;2022-08-16T12:49:01;15.50;99.90
16305;DHT22;8261;47.678;-122.174;2022-08-16T12:51:32;15.50;99.90
16305;DHT22;8261;47.678;-122.174;2022-08-16T12:54:24;15.50;99.90
16305;DHT22;8261;47.678;-122.174;2022-08-16T12:56:58;15.50;99.90
16305;DHT22;8261;47.678;-122.174;2022-08-16T12:59:31;15.40;99.90
16305;DHT22;8261;47.678;-122.174;2022-08-16T13:02:06;15.40;99.90
16305;DHT22;8261;47.678;-122.174;2022-08-16T13:04:49;15.40;99.90
16305;DHT22;8261;47.678;-122.174;2022-08-16T13:07:22;15.40;99.90
16305;DHT22;8261;47.678;-122.174;2022-08-16T13:09:54;15.40;99.90
16305;DHT22;8261;47.678;-122.174;2022-08-16T13:12:36;15.30;99.90
16305;DHT22;8261;47.678;-122.174;2022-08-16T13:15:12;15.20;99.90
16305;DHT22;8261;47.678;-122.174;2022-08-16T13:17:45;15.20;99.90
16305;DHT22;8261;47.678;-122.174;2022-08-16T13:20:19;15.40;99.90
16305;DHT22;8261;47.678;-122.174;2022-08-16T13:22:56;15.30;99.90
16305;DHT22;8261;47.678;-122.174;2022-08-16T13:25:31;15.30;99.90
16305;DHT22;8261;47.678;-122.174;2022-08-16T13:28:06;15.30;99.90
16305;DHT22;8261;47.678;-122.174;2022-08-16T13:30:45;15.30;99.90
16305;DHT22;8261;47.678;-122.174;2022-08-16T13:33:19;15.30;99.90
16305;DHT22;8261;47.678;-122.174;2022-08-16T13:35:58;15.30;99.90
16305;DHT22;8261;47.678;-122.174;2022-08-16T13:38:29;15.30;99.90
16305;DHT22;8261;47.678;-122.174;2022-08-16T13:41:04;15.40;99.90
16305;DHT22;8261;47.678;-122.174;2022-08-16T13:43:39;15.40;99.90
16305;DHT22;8261;47.678;-122.174;2022-08-16T13:46:24;15.40;99.90
16305;DHT22;8261;47.678;-122.174;2022-08-16T13:48:57;15.40;99.90
16305;DHT22;8261;47.678;-122.174;2022-08-16T13:51:29;15.50;99.90
16305;DHT22;8261;47.678;-122.174;2022-08-16T13:54:01;15.50;99.90
16305;DHT22;8261;47.678;-122.174;2022-08-16T13:56:35;15.50;99.90
16305;DHT22;8261;47.678;-122.174;2022-08-16T13:59:11;15.50;99.90
16305;DHT22;8261;47.678;-122.174;2022-08-16T14:01:48;15.50;99.90
16305;DHT22;8261;47.678;-122.174;2022-08-16T14:04:24;15.50;99.90
16305;DHT22;8261;47.678;-122.174;2022-08-16T14:06:56;15.50;99.90
16305;DHT22;8261;47.678;-122.174;2022-08-16T14:09:29;15.50;99.90
16305;DHT22;8261;47.678;-122.174;2022-08-16T14:12:03;15.60;99.90
16305;DHT22;8261;47.678;-122.174;2022-08-16T14:14:47;15.60;99.90
16305;DHT22;8261;47.678;-122.174;2022-08-16T14:17:25;15.60;99.90
16305;DHT22;8261;47.678;-122.174;2022-08-16T14:20:17;15.70;99.90
16305;DHT22;8261;47.678;-122.174;2022-08-16T14:22:48;15.70;99.90
16305;DHT22;8261;47.678;-122.174;2022-08-16T14:25:22;15.80;99.90
16305;DHT22;8261;47.678;-122.174;2022-08-16T14:27:55;15.80;99.90
16305;DHT22;8261;47.678;-122.174;2022-08-16T14:30:29;15.80;99.90
16305;DHT22;8261;47.678;-122.174;2022-08-16T14:33:01;15.90;99.90
16305;DHT22;8261;47.678;-122.174;2022-08-16T14:35:33;15.90;99.90
16305;DHT22;8261;47.678;-122.174;2022-08-16T14:38:17;16.10;99.90
16305;DHT22;8261;47.678;-122.174;2022-08-16T14:40:51;16.10;99.90
16305;DHT22;8261;47.678;-122.174;2022-08-16T14:43:22;16.20;99.90
16305;DHT22;8261;47.678;-122.174;2022-08-16T14:46:03;16.30;99.90
16305;DHT22;8261;47.678;-122.174;2022-08-16T14:48:36;16.30;99.90
16305;DHT22;8261;47.678;-122.174;2022-08-16T14:51:21;16.40;99.90
16305;DHT22;8261;47.678;-122.174;2022-08-16T14:53:54;16.50;99.90
16305;DHT22;8261;47.678;-122.174;2022-08-16T14:56:29;16.60;99.90
16305;DHT22;8261;47.678;-122.174;2022-08-16T14:59:09;16.60;99.90
16305;DHT22;8261;47.678;-122.174;2022-08-16T15:01:45;16.70;99.90
16305;DHT22;8261;47.678;-122.174;2022-08-16T15:04:27;16.70;99.90
16305;DHT22;8261;47.678;-122.174;2022-08-16T15:07:15;16.80;99.90
16305;DHT22;8261;47.678;-122.174;2022-08-16T15:09:49;16.90;99.90
16305;DHT22;8261;47.678;-122.174;2022-08-16T15:12:30;17.10;99.90
16305;DHT22;8261;47.678;-122.174;2022-08-16T15:15:08;17.10;99.90
16305;DHT22;8261;47.678;-122.174;2022-08-16T15:17:46;17.20;99.90
16305;DHT22;8261;47.678;-122.174;2022-08-16T15:20:25;17.30;99.90
16305;DHT22;8261;47.678;-122.174;2022-08-16T15:23:01;17.40;99.90
16305;DHT22;8261;47.678;-122.174;2022-08-16T15:25:35;17.50;99.90
16305;DHT22;8261;47.678;-122.174;2022-08-16T15:28:10;17.60;99.90
16305;DHT22;8261;47.678;-122.174;2022-08-16T15:30:59;17.60;99.90
16305;DHT22;8261;47.678;-122.174;2022-08-16T15:33:40;17.70;99.90
16305;DHT22;8261;47.678;-122.174;2022-08-16T15:36:23;17.90;99.90
16305;DHT22;8261;47.678;-122.174;2022-08-16T15:39:13;18.00;99.90
16305;DHT22;8261;47.678;-122.174;2022-08-16T15:42:04;18.10;99.90
16305;DHT22;8261;47.678;-122.174;2022-08-16T15:44:51;18.20;99.90
16305;DHT22;8261;47.678;-122.174;2022-08-16T15:50:05;18.30;99.90
16305;DHT22;8261;47.678;-122.174;2022-08-16T15:52:38;18.30;99.90
16305;DHT22;8261;47.678;-122.174;2022-08-16T15:55:10;18.30;99.90
16305;DHT22;8261;47.678;-122.174;2022-08-16T15:58:02;18.40;99.90
16305;DHT22;8261;47.678;-122.174;2022-08-16T16:00:53;18.50;99.90
16305;DHT22;8261;47.678;-122.174;2022-08-16T16:03:26;18.50;99.90
16305;DHT22;8261;47.678;-122.174;2022-08-16T16:06:04;18.60;99.90
16305;DHT22;8261;47.678;-122.174;2022-08-16T16:08:39;18.70;99.90
16305;DHT22;8261;47.678;-122.174;2022-08-16T16:11:13;18.80;99.90
16305;DHT22;8261;47.678;-122.174;2022-08-16T16:13:52;18.80;99.90
16305;DHT22;8261;47.678;-122.174;2022-08-16T16:16:25;18.80;99.90
16305;DHT22;8261;47.678;-122.174;2022-08-16T16:18:57;18.90;99.90
16305;DHT22;8261;47.678;-122.174;2022-08-16T16:21:48;19.00;99.90
16305;DHT22;8261;47.678;-122.174;2022-08-16T16:24:23;19.20;99.90
16305;DHT22;8261;47.678;-122.174;2022-08-16T16:27:02;19.20;99.90
16305;DHT22;8261;47.678;-122.174;2022-08-16T16:29:35;19.30;99.90
16305;DHT22;8261;47.678;-122.174;2022-08-16T16:32:19;19.40;99.90
16305;DHT22;8261;47.678;-122.174;2022-08-16T16:35:01;19.50;99.90
16305;DHT22;8261;47.678;-122.174;2022-08-16T16:37:58;19.70;99.90
16305;DHT22;8261;47.678;-122.174;2022-08-16T16:40:35;19.80;99.90
16305;DHT22;8261;47.678;-122.174;2022-08-16T16:43:20;19.90;99.90
16305;DHT22;8261;47.678;-122.174;2022-08-16T16:45:59;19.90;99.90